createdAt,value
2022-11-19T00:00:36.302Z,0
2022-11-19T00:01:52.608Z,0
2022-11-19T00:03:08.891Z,0
2022-11-19T00:04:25.198Z,0
2022-11-19T00:05:41.501Z,0
2022-11-19T00:06:57.782Z,0
2022-11-19T00:08:13.106Z,0
2022-11-19T00:09:29.388Z,0
2022-11-19T00:10:45.684Z,0
2022-11-19T00:12:01.993Z,0
2022-11-19T00:13:18.279Z,0
2022-11-19T00:14:34.554Z,0
2022-11-19T00:15:50.874Z,0
2022-11-19T00:17:07.138Z,0
2022-11-19T00:18:23.434Z,0
2022-11-19T00:19:39.751Z,0
2022-11-19T00:20:56.045Z,0
2022-11-19T00:22:12.342Z,0
2022-11-19T00:23:28.642Z,0
2022-11-19T00:24:43.962Z,0
2022-11-19T00:26:00.245Z,0
2022-11-19T00:27:16.544Z,0
2022-11-19T00:28:32.848Z,0
2022-11-19T00:29:49.112Z,0
2022-11-19T00:31:05.409Z,0
2022-11-19T00:32:21.728Z,0
2022-11-19T00:33:37.992Z,0
2022-11-19T00:34:54.302Z,0
2022-11-19T00:36:10.594Z,0
2022-11-19T00:37:26.914Z,0
2022-11-19T00:38:43.174Z,0
2022-11-19T00:39:59.505Z,0
2022-11-19T00:41:14.804Z,0
2022-11-19T00:42:31.100Z,0
2022-11-19T00:43:47.393Z,0
2022-11-19T00:45:03.668Z,0
2022-11-19T00:46:19.964Z,0
2022-11-19T00:47:36.252Z,0
2022-11-19T00:48:52.550Z,0
2022-11-19T00:50:08.872Z,0
2022-11-19T00:51:25.164Z,0
2022-11-19T00:52:41.459Z,0
2022-11-19T00:53:57.731Z,0
2022-11-19T00:55:14.050Z,0
2022-11-19T00:56:30.342Z,0
2022-11-19T00:57:45.667Z,0
2022-11-19T00:59:01.934Z,0
2022-11-19T01:00:18.270Z,0
2022-11-19T01:01:34.539Z,0
2022-11-19T01:02:50.820Z,0
2022-11-19T01:04:07.146Z,0
2022-11-19T01:05:23.436Z,0
2022-11-19T01:06:39.726Z,0
2022-11-19T01:07:56.031Z,0
2022-11-19T01:09:12.307Z,0
2022-11-19T01:10:28.603Z,0
2022-11-19T01:11:44.898Z,0
2022-11-19T01:13:01.204Z,0
2022-11-19T01:14:16.516Z,0
2022-11-19T01:15:32.778Z,0
2022-11-19T01:16:49.109Z,0
2022-11-19T01:18:05.383Z,0
2022-11-19T01:19:21.697Z,0
2022-11-19T01:20:37.990Z,0
2022-11-19T01:21:54.297Z,0
2022-11-19T01:23:10.579Z,0
2022-11-19T01:24:26.872Z,0
2022-11-19T01:25:43.149Z,0
2022-11-19T01:26:59.477Z,0
2022-11-19T01:28:15.761Z,0
2022-11-19T01:29:32.062Z,0
2022-11-19T01:30:47.365Z,0
2022-11-19T01:32:03.633Z,0
2022-11-19T01:33:19.964Z,0
2022-11-19T01:34:36.255Z,0
2022-11-19T01:37:08.837Z,0
2022-11-19T01:38:24.162Z,0
2022-11-19T01:39:40.446Z,0
2022-11-19T01:40:56.721Z,0
2022-11-19T01:42:13.039Z,0
2022-11-19T01:43:29.335Z,0
2022-11-19T01:44:45.627Z,0
2022-11-19T01:46:01.925Z,0
2022-11-19T01:47:18.220Z,0
2022-11-19T01:48:34.496Z,0
2022-11-19T01:49:50.818Z,0
2022-11-19T01:51:07.113Z,0
2022-11-19T01:52:23.407Z,0
2022-11-19T01:53:39.709Z,0
2022-11-19T01:54:54.984Z,0
2022-11-19T01:56:11.304Z,0
2022-11-19T01:57:27.578Z,0
2022-11-19T01:58:43.907Z,0
2022-11-19T02:00:00.177Z,0
2022-11-19T02:01:16.463Z,0
2022-11-19T02:02:32.791Z,0
2022-11-19T02:03:49.080Z,0
2022-11-19T02:05:05.370Z,0
2022-11-19T02:06:21.683Z,0
2022-11-19T02:07:37.940Z,0
2022-11-19T02:08:54.236Z,0
2022-11-19T02:10:10.529Z,0
2022-11-19T02:11:25.876Z,0
2022-11-19T02:12:42.140Z,0
2022-11-19T02:13:58.470Z,0
2022-11-19T02:15:14.724Z,0
2022-11-19T02:16:31.047Z,0
2022-11-19T02:17:47.322Z,0
2022-11-19T02:19:03.644Z,0
2022-11-19T02:20:19.915Z,0
2022-11-19T02:21:36.232Z,0
2022-11-19T02:22:52.525Z,0
2022-11-19T02:24:08.823Z,0
2022-11-19T02:25:25.111Z,0
2022-11-19T02:26:41.419Z,0
2022-11-19T02:27:56.731Z,0
2022-11-19T02:29:13.009Z,0
2022-11-19T02:30:29.285Z,0
2022-11-19T02:31:45.594Z,0
2022-11-19T02:33:01.902Z,0
2022-11-19T02:34:18.205Z,0
2022-11-19T02:35:34.468Z,0
2022-11-19T02:36:50.788Z,0
2022-11-19T02:38:07.062Z,0
2022-11-19T02:39:23.375Z,0
2022-11-19T02:40:39.672Z,0
2022-11-19T02:41:55.942Z,0
2022-11-19T02:43:12.260Z,0
2022-11-19T02:44:27.571Z,0
2022-11-19T02:45:43.865Z,0
2022-11-19T02:47:00.178Z,0
2022-11-19T02:48:16.457Z,0
2022-11-19T02:49:32.759Z,0
2022-11-19T02:50:49.034Z,0
2022-11-19T02:52:05.000Z,0
2022-11-19T02:53:21.623Z,0
2022-11-19T02:54:37.937Z,0
2022-11-19T02:55:54.215Z,0
2022-11-19T02:57:10.533Z,0
2022-11-19T02:58:26.798Z,0
2022-11-19T02:59:43.124Z,0
2022-11-19T03:00:58.429Z,0
2022-11-19T03:02:14.732Z,0
2022-11-19T03:03:31.024Z,0
2022-11-19T03:04:47.318Z,0
2022-11-19T03:06:03.616Z,0
2022-11-19T03:07:19.903Z,0
2022-11-19T03:08:36.209Z,0
2022-11-19T03:09:52.510Z,0
2022-11-19T03:11:08.789Z,0
2022-11-19T03:12:25.068Z,0
2022-11-19T03:13:41.389Z,0
2022-11-19T03:14:57.677Z,0
2022-11-19T03:16:13.980Z,0
2022-11-19T03:17:29.283Z,0
2022-11-19T03:18:45.556Z,0
2022-11-19T03:20:01.855Z,0
2022-11-19T03:21:18.171Z,0
2022-11-19T03:22:34.473Z,0
2022-11-19T03:23:50.737Z,0
2022-11-19T03:25:07.057Z,0
2022-11-19T03:26:23.350Z,0
2022-11-19T03:27:39.648Z,0
2022-11-19T03:28:55.920Z,0
2022-11-19T03:30:12.254Z,0
2022-11-19T03:31:28.512Z,0
2022-11-19T03:32:44.827Z,0
2022-11-19T03:34:00.132Z,0
2022-11-19T03:35:16.432Z,0
2022-11-19T03:36:32.741Z,0
2022-11-19T03:37:49.030Z,0
2022-11-19T03:39:05.322Z,0
2022-11-19T03:40:21.617Z,0
2022-11-19T03:41:37.891Z,0
2022-11-19T03:42:54.221Z,0
2022-11-19T03:44:10.484Z,0
2022-11-19T03:45:26.814Z,0
2022-11-19T03:46:43.094Z,0
2022-11-19T03:47:59.402Z,0
2022-11-19T03:49:15.688Z,0
2022-11-19T03:50:30.994Z,0
2022-11-19T03:51:47.269Z,0
2022-11-19T03:53:03.582Z,0
2022-11-19T03:54:19.884Z,0
2022-11-19T03:55:36.179Z,0
2022-11-19T03:56:52.449Z,0
2022-11-19T03:58:08.752Z,0
2022-11-19T03:59:25.069Z,0
2022-11-19T04:00:41.360Z,0
2022-11-19T04:01:57.657Z,0
2022-11-19T04:03:13.958Z,0
2022-11-19T04:04:30.234Z,0
2022-11-19T04:05:46.519Z,0
2022-11-19T04:07:01.853Z,0
2022-11-19T04:08:18.164Z,0
2022-11-19T04:09:34.446Z,0
2022-11-19T04:10:50.753Z,0
2022-11-19T04:12:07.035Z,0
2022-11-19T04:13:23.328Z,0
2022-11-19T04:14:39.630Z,0
2022-11-19T04:15:55.922Z,0
2022-11-19T04:17:12.202Z,0
2022-11-19T04:18:28.503Z,0
2022-11-19T04:19:44.808Z,0
2022-11-19T04:21:01.082Z,0
2022-11-19T04:22:17.381Z,0
2022-11-19T04:23:32.716Z,0
2022-11-19T04:24:49.004Z,0
2022-11-19T04:26:05.288Z,0
2022-11-19T04:27:21.570Z,0
2022-11-19T04:28:37.893Z,0
2022-11-19T04:29:54.174Z,0
2022-11-19T04:31:10.480Z,0
2022-11-19T04:32:26.758Z,0
2022-11-19T04:33:43.071Z,0
2022-11-19T04:34:59.356Z,0
2022-11-19T04:36:15.639Z,0
2022-11-19T04:37:31.970Z,0
2022-11-19T04:38:48.264Z,0
2022-11-19T04:40:03.551Z,0
2022-11-19T04:41:19.865Z,0
2022-11-19T04:42:36.144Z,0
2022-11-19T04:43:52.459Z,0
2022-11-19T04:45:08.747Z,0
2022-11-19T04:46:25.053Z,0
2022-11-19T04:47:41.351Z,0
2022-11-19T04:48:57.612Z,0
2022-11-19T04:50:13.928Z,0
2022-11-19T04:51:30.200Z,0
2022-11-19T04:52:46.500Z,0
2022-11-19T04:55:19.092Z,0
2022-11-19T04:56:34.408Z,0
2022-11-19T04:57:50.727Z,0
2022-11-19T04:59:06.992Z,0
2022-11-19T05:00:23.308Z,0
2022-11-19T05:01:39.621Z,0
2022-11-19T05:02:55.876Z,0
2022-11-19T05:04:12.198Z,0
2022-11-19T05:05:28.496Z,0
2022-11-19T05:06:44.792Z,0
2022-11-19T05:08:01.085Z,0
2022-11-19T05:09:17.390Z,0
2022-11-19T05:10:33.651Z,0
2022-11-19T05:11:49.967Z,0
2022-11-19T05:13:05.293Z,0
2022-11-19T05:14:21.580Z,0
2022-11-19T05:15:37.874Z,0
2022-11-19T05:16:54.170Z,0
2022-11-19T05:18:10.470Z,0
2022-11-19T05:19:26.751Z,0
2022-11-19T05:20:43.029Z,0
2022-11-19T05:21:59.000Z,0
2022-11-19T05:23:15.647Z,0
2022-11-19T05:24:31.942Z,0
2022-11-19T05:25:48.212Z,0
2022-11-19T05:27:04.540Z,0
2022-11-19T05:28:20.801Z,0
2022-11-19T05:29:36.115Z,0
2022-11-19T05:30:52.441Z,0
2022-11-19T05:32:08.733Z,0
2022-11-19T05:33:25.005Z,0
2022-11-19T05:34:41.316Z,0
2022-11-19T05:35:57.625Z,0
2022-11-19T05:37:13.908Z,0
2022-11-19T05:38:30.183Z,0
2022-11-19T05:39:46.518Z,0
2022-11-19T05:41:02.772Z,0
2022-11-19T05:42:19.071Z,0
2022-11-19T05:43:35.364Z,0
2022-11-19T05:44:51.000Z,0
2022-11-19T05:46:06.996Z,0
2022-11-19T05:47:23.302Z,0
2022-11-19T05:48:39.589Z,0
2022-11-19T05:49:55.831Z,1
2022-11-19T05:51:12.108Z,0
2022-11-19T05:52:28.420Z,0
2022-11-19T05:53:43.668Z,1
2022-11-19T05:54:59.940Z,1
2022-11-19T05:56:16.228Z,0
2022-11-19T05:57:32.530Z,0
2022-11-19T05:58:48.813Z,0
2022-11-19T06:00:05.101Z,0
2022-11-19T06:01:21.349Z,1
2022-11-19T06:02:37.619Z,1
2022-11-19T06:03:53.859Z,1
2022-11-19T06:05:10.073Z,3
2022-11-19T06:06:26.329Z,2
2022-11-19T06:07:42.577Z,2
2022-11-19T06:08:58.827Z,7
2022-11-19T06:10:14.076Z,4
2022-11-19T06:11:30.298Z,7
2022-11-19T06:12:46.559Z,7
2022-11-19T06:14:02.782Z,9
2022-11-19T06:15:19.047Z,13
2022-11-19T06:16:35.271Z,18
2022-11-19T06:17:51.544Z,24
2022-11-19T06:19:07.767Z,29
2022-11-19T06:20:23.988Z,33
2022-11-19T06:21:40.261Z,42
2022-11-19T06:22:56.468Z,51
2022-11-19T06:24:12.739Z,61
2022-11-19T06:25:28.980Z,72
2022-11-19T06:26:44.241Z,83
2022-11-19T06:28:00.454Z,97
2022-11-19T06:29:16.701Z,106
2022-11-19T06:30:32.976Z,128
2022-11-19T06:31:49.178Z,143
2022-11-19T06:33:05.453Z,160
2022-11-19T06:34:21.692Z,178
2022-11-19T06:35:37.931Z,201
2022-11-19T06:36:54.167Z,221
2022-11-19T06:38:10.404Z,243
2022-11-19T06:39:26.633Z,271
2022-11-19T06:40:42.902Z,296
2022-11-19T06:41:59.116Z,317
2022-11-19T06:43:14.373Z,347
2022-11-19T06:44:30.609Z,375
2022-11-19T06:45:46.850Z,406
2022-11-19T06:47:03.114Z,435
2022-11-19T06:48:19.355Z,462
2022-11-19T06:49:35.598Z,496
2022-11-19T06:50:51.825Z,528
2022-11-19T06:52:08.065Z,571
2022-11-19T06:53:24.333Z,603
2022-11-19T06:54:40.548Z,642
2022-11-19T06:55:56.808Z,676
2022-11-19T06:57:13.032Z,713
2022-11-19T06:58:29.267Z,759
2022-11-19T06:59:44.533Z,799
2022-11-19T07:01:00.787Z,838
2022-11-19T07:02:17.011Z,885
2022-11-19T07:03:33.286Z,924
2022-11-19T07:04:49.491Z,962
2022-11-19T07:06:05.761Z,1010
2022-11-19T07:07:21.994Z,1052
2022-11-19T07:08:38.253Z,1095
2022-11-19T07:09:54.462Z,1137
2022-11-19T07:11:10.734Z,1177
2022-11-19T07:12:26.963Z,1220
2022-11-19T07:13:43.208Z,1254
2022-11-19T07:14:59.430Z,1298
2022-11-19T07:16:14.709Z,1342
2022-11-19T07:17:30.929Z,1383
2022-11-19T07:18:47.185Z,1433
2022-11-19T07:20:03.413Z,1479
2022-11-19T07:21:19.652Z,1525
2022-11-19T07:22:35.901Z,1564
2022-11-19T07:23:52.136Z,1607
2022-11-19T07:25:08.383Z,1655
2022-11-19T07:26:24.648Z,1701
2022-11-19T07:27:40.887Z,1740
2022-11-19T07:28:57.127Z,1776
2022-11-19T07:30:13.365Z,1832
2022-11-19T07:31:29.578Z,1877
2022-11-19T07:32:44.837Z,1909
2022-11-19T07:35:17.331Z,1999
2022-11-19T07:36:33.591Z,2048
2022-11-19T07:37:49.831Z,2072
2022-11-19T07:39:06.052Z,2108
2022-11-19T07:40:22.310Z,2141
2022-11-19T07:41:38.563Z,2172
2022-11-19T07:42:54.785Z,2197
2022-11-19T07:44:11.020Z,2220
2022-11-19T07:45:27.261Z,2237
2022-11-19T07:46:43.522Z,2262
2022-11-19T07:47:59.745Z,2295
2022-11-19T07:49:15.019Z,2330
2022-11-19T07:50:31.246Z,2368
2022-11-19T07:51:47.475Z,2407
2022-11-19T07:53:03.720Z,2442
2022-11-19T07:54:19.964Z,2474
2022-11-19T07:55:36.221Z,2508
2022-11-19T07:56:52.466Z,2537
2022-11-19T07:58:08.714Z,2569
2022-11-19T07:59:24.955Z,2602
2022-11-19T08:00:41.166Z,2631
2022-11-19T08:01:57.406Z,2666
2022-11-19T08:03:13.673Z,2697
2022-11-19T08:04:29.923Z,2728
2022-11-19T08:05:45.150Z,2763
2022-11-19T08:07:01.391Z,2804
2022-11-19T08:08:17.649Z,2844
2022-11-19T08:09:33.893Z,2885
2022-11-19T08:10:50.135Z,2931
2022-11-19T08:12:06.375Z,2979
2022-11-19T08:13:22.615Z,3009
2022-11-19T08:14:38.835Z,3029
2022-11-19T08:15:55.099Z,3049
2022-11-19T08:17:11.324Z,3077
2022-11-19T08:18:27.567Z,3099
2022-11-19T08:19:43.827Z,3126
2022-11-19T08:21:00.047Z,3151
2022-11-19T08:22:15.326Z,3190
2022-11-19T08:23:31.549Z,3230
2022-11-19T08:24:47.781Z,3260
2022-11-19T08:26:04.045Z,3296
2022-11-19T08:27:20.292Z,3325
2022-11-19T08:28:36.519Z,3352
2022-11-19T08:29:52.749Z,3375
2022-11-19T08:31:08.999Z,3404
2022-11-19T08:32:25.249Z,3431
2022-11-19T08:33:41.473Z,3465
2022-11-19T08:34:57.736Z,3496
2022-11-19T08:36:13.959Z,3525
2022-11-19T08:37:30.200Z,3555
2022-11-19T08:38:45.476Z,3589
2022-11-19T08:40:01.719Z,3621
2022-11-19T08:41:17.942Z,3657
2022-11-19T08:42:34.201Z,3695
2022-11-19T08:43:50.437Z,3737
2022-11-19T08:45:06.691Z,3791
2022-11-19T08:46:22.922Z,3878
2022-11-19T08:47:39.139Z,3770
2022-11-19T08:48:55.424Z,13849
2022-11-19T08:50:11.636Z,7982
2022-11-19T08:51:27.876Z,81931
2022-11-19T08:52:44.137Z,77780
2022-11-19T08:54:00.362Z,82460
2022-11-19T08:55:15.624Z,74975
2022-11-19T08:56:31.000Z,76312
2022-11-19T08:57:48.101Z,79791
2022-11-19T08:59:04.363Z,79991
2022-11-19T09:00:20.607Z,79141
2022-11-19T09:01:36.844Z,82063
2022-11-19T09:02:53.083Z,80199
2022-11-19T09:04:09.314Z,81090
2022-11-19T09:05:25.571Z,74555
2022-11-19T09:06:41.820Z,79819
2022-11-19T09:07:58.055Z,82304
2022-11-19T09:09:14.280Z,82571
2022-11-19T09:10:30.525Z,82703
2022-11-19T09:11:45.789Z,82592
2022-11-19T09:13:02.024Z,81246
2022-11-19T09:14:18.263Z,77188
2022-11-19T09:15:34.497Z,75137
2022-11-19T09:16:50.740Z,81028
2022-11-19T09:18:06.957Z,82356
2022-11-19T09:19:23.201Z,79787
2022-11-19T09:20:39.472Z,74770
2022-11-19T09:21:55.678Z,74734
2022-11-19T09:23:11.917Z,80017
2022-11-19T09:24:28.169Z,77294
2022-11-19T09:25:44.395Z,79606
2022-11-19T09:27:00.665Z,79215
2022-11-19T09:28:15.920Z,78150
2022-11-19T09:29:32.139Z,80127
2022-11-19T09:30:48.394Z,80155
2022-11-19T09:32:04.637Z,80945
2022-11-19T09:33:20.879Z,81059
2022-11-19T09:34:37.093Z,78146
2022-11-19T09:35:53.356Z,74809
2022-11-19T09:37:09.585Z,76332
2022-11-19T09:38:25.813Z,80547
2022-11-19T09:39:42.061Z,74652
2022-11-19T09:40:58.292Z,74886
2022-11-19T09:42:14.548Z,76259
2022-11-19T09:43:30.805Z,77942
2022-11-19T09:44:46.042Z,77311
2022-11-19T09:46:02.291Z,79060
2022-11-19T09:47:18.547Z,76066
2022-11-19T09:48:34.786Z,77964
2022-11-19T09:49:51.004Z,80818
2022-11-19T09:51:07.252Z,74991
2022-11-19T09:52:23.471Z,76880
2022-11-19T09:53:39.735Z,78087
2022-11-19T09:54:55.984Z,74851
2022-11-19T09:56:12.219Z,75141
2022-11-19T09:57:28.432Z,76982
2022-11-19T09:58:44.682Z,75137
2022-11-19T10:00:00.920Z,74902
2022-11-19T10:01:16.197Z,74834
2022-11-19T10:02:32.425Z,78968
2022-11-19T10:03:48.670Z,75313
2022-11-19T10:05:04.890Z,74807
2022-11-19T10:06:21.129Z,74811
2022-11-19T10:07:37.410Z,75051
2022-11-19T10:08:52.634Z,74783
2022-11-19T10:10:08.899Z,75704
2022-11-19T10:11:25.139Z,75541
2022-11-19T10:12:41.356Z,74674
2022-11-19T10:13:57.619Z,74563
2022-11-19T10:15:13.838Z,74824
2022-11-19T10:16:30.089Z,76830
2022-11-19T10:17:46.337Z,75227
2022-11-19T10:19:02.579Z,75263
2022-11-19T10:20:18.802Z,74486
2022-11-19T10:21:35.056Z,74041
2022-11-19T10:22:51.286Z,80452
2022-11-19T10:24:07.540Z,81857
2022-11-19T10:25:22.773Z,82018
2022-11-19T10:26:39.036Z,81286
2022-11-19T10:27:55.258Z,80199
2022-11-19T10:29:11.527Z,79998
2022-11-19T10:30:27.755Z,79481
2022-11-19T10:31:43.973Z,79209
2022-11-19T10:33:00.243Z,76949
2022-11-19T10:34:16.460Z,76712
2022-11-19T10:35:32.702Z,74545
2022-11-19T10:36:48.960Z,25202
2022-11-19T10:38:05.178Z,74931
2022-11-19T10:39:21.446Z,29207
2022-11-19T10:40:37.669Z,30201
2022-11-19T10:41:52.944Z,75521
2022-11-19T10:43:09.190Z,74395
2022-11-19T10:44:25.421Z,26427
2022-11-19T10:45:41.665Z,74925
2022-11-19T10:46:57.903Z,24630
2022-11-19T10:48:14.138Z,26566
2022-11-19T10:49:30.383Z,31270
2022-11-19T10:50:46.605Z,27232
2022-11-19T10:52:02.866Z,28620
2022-11-19T10:53:19.073Z,22996
2022-11-19T10:54:35.314Z,24581
2022-11-19T10:55:51.569Z,17826
2022-11-19T10:57:07.818Z,18040
2022-11-19T10:58:23.070Z,20441
2022-11-19T10:59:39.325Z,75187
2022-11-19T11:00:55.565Z,73245
2022-11-19T11:02:11.800Z,19838
2022-11-19T11:03:28.018Z,71987
2022-11-19T11:04:44.252Z,28276
2022-11-19T11:06:00.492Z,21397
2022-11-19T11:07:16.753Z,15019
2022-11-19T11:08:32.981Z,17437
2022-11-19T11:09:49.241Z,22592
2022-11-19T11:11:05.450Z,17224
2022-11-19T11:12:21.706Z,21355
2022-11-19T11:13:37.963Z,20523
2022-11-19T11:14:53.222Z,19757
2022-11-19T11:16:09.433Z,15051
2022-11-19T11:17:25.692Z,20995
2022-11-19T11:18:41.929Z,23792
2022-11-19T11:19:58.170Z,24651
2022-11-19T11:21:14.423Z,18867
2022-11-19T11:22:30.639Z,23673
2022-11-19T11:23:46.879Z,9406
2022-11-19T11:25:03.146Z,14568
2022-11-19T11:26:19.376Z,14311
2022-11-19T11:27:35.618Z,73138
2022-11-19T11:28:51.831Z,32116
2022-11-19T11:30:08.092Z,17891
2022-11-19T11:31:23.329Z,24655
2022-11-19T11:32:39.586Z,24040
2022-11-19T11:33:55.803Z,74889
2022-11-19T11:35:12.062Z,72220
2022-11-19T11:36:28.287Z,31630
2022-11-19T11:37:44.531Z,31786
2022-11-19T11:39:00.792Z,17767
2022-11-19T11:40:17.002Z,23402
2022-11-19T11:41:33.261Z,15787
2022-11-19T11:42:49.507Z,15161
2022-11-19T11:44:05.752Z,20391
2022-11-19T11:45:21.983Z,8478
2022-11-19T11:46:38.225Z,15110
2022-11-19T11:47:53.466Z,11683
2022-11-19T11:49:09.720Z,79488
2022-11-19T11:50:25.937Z,77817
2022-11-19T11:51:42.192Z,79884
2022-11-19T11:52:58.421Z,77064
2022-11-19T11:54:14.684Z,81988
2022-11-19T11:55:30.898Z,82709
2022-11-19T11:56:47.159Z,78315
2022-11-19T11:58:03.379Z,81455
2022-11-19T11:59:19.644Z,82536
2022-11-19T12:00:35.886Z,65891
2022-11-19T12:01:52.108Z,17622
2022-11-19T12:03:08.344Z,5298
2022-11-19T12:04:23.619Z,4794
2022-11-19T12:05:39.853Z,2377
2022-11-19T12:06:56.078Z,3897
2022-11-19T12:08:12.346Z,75656
2022-11-19T12:09:28.558Z,70036
2022-11-19T12:10:44.814Z,27106
2022-11-19T12:12:01.058Z,18969
2022-11-19T12:13:17.293Z,8142
2022-11-19T12:14:33.537Z,4752
2022-11-19T12:15:49.779Z,4470
2022-11-19T12:17:06.016Z,4624
2022-11-19T12:18:22.264Z,3995
2022-11-19T12:19:38.510Z,4457
2022-11-19T12:20:53.731Z,4053
2022-11-19T12:22:09.978Z,4017
2022-11-19T12:23:26.212Z,4019
2022-11-19T12:24:42.451Z,4137
2022-11-19T12:25:58.717Z,4062
2022-11-19T12:27:14.963Z,4042
2022-11-19T12:28:31.170Z,3988
2022-11-19T12:29:47.422Z,3930
2022-11-19T12:31:03.671Z,4011
2022-11-19T12:32:19.927Z,3839
2022-11-19T12:33:36.130Z,3856
2022-11-19T12:34:52.393Z,3845
2022-11-19T12:36:08.617Z,3910
2022-11-19T12:37:24.982Z,3861
2022-11-19T12:38:41.239Z,3810
2022-11-19T12:39:57.484Z,3783
2022-11-19T12:41:13.722Z,3739
2022-11-19T12:42:29.966Z,3729
2022-11-19T12:43:46.173Z,3665
2022-11-19T12:45:02.416Z,3486
2022-11-19T12:46:18.690Z,3373
2022-11-19T12:47:34.920Z,3338
2022-11-19T12:48:51.157Z,3294
2022-11-19T12:50:07.386Z,3247
2022-11-19T12:51:23.616Z,3206
2022-11-19T12:52:39.865Z,3161
2022-11-19T12:53:55.136Z,3131
2022-11-19T12:55:11.362Z,3092
2022-11-19T12:56:27.618Z,3068
2022-11-19T12:57:43.858Z,3044
2022-11-19T12:59:00.110Z,3016
2022-11-19T13:00:16.343Z,2978
2022-11-19T13:01:32.585Z,2988
2022-11-19T13:02:48.830Z,2977
2022-11-19T13:04:05.075Z,2899
2022-11-19T13:05:21.281Z,2853
2022-11-19T13:06:37.520Z,2818
2022-11-19T13:07:53.779Z,2773
2022-11-19T13:09:10.014Z,2747
2022-11-19T13:10:25.279Z,2710
2022-11-19T13:11:41.520Z,2682
2022-11-19T13:12:57.741Z,2643
2022-11-19T13:14:14.016Z,2601
2022-11-19T13:15:30.216Z,2561
2022-11-19T13:16:46.486Z,2516
2022-11-19T13:18:02.721Z,2457
2022-11-19T13:19:18.944Z,2426
2022-11-19T13:20:35.216Z,2422
2022-11-19T13:21:51.447Z,2402
2022-11-19T13:23:07.686Z,2375
2022-11-19T13:24:23.899Z,2353
2022-11-19T13:25:40.177Z,2328
2022-11-19T13:26:55.431Z,2296
2022-11-19T13:28:11.661Z,2267
2022-11-19T13:29:27.904Z,2239
2022-11-19T13:30:44.127Z,2206
2022-11-19T13:32:00.366Z,2175
2022-11-19T13:33:16.604Z,2144
2022-11-19T13:34:32.879Z,2115
2022-11-19T13:35:49.087Z,2087
2022-11-19T13:37:05.328Z,2059
2022-11-19T13:38:21.584Z,2032
2022-11-19T13:39:37.818Z,1999
2022-11-19T13:40:54.059Z,1970
2022-11-19T13:42:10.296Z,1943
2022-11-19T13:43:25.558Z,1920
2022-11-19T13:44:41.821Z,1898
2022-11-19T13:45:58.048Z,1868
2022-11-19T13:47:14.289Z,1843
2022-11-19T13:48:30.508Z,1817
2022-11-19T13:49:46.772Z,1791
2022-11-19T13:51:03.005Z,1773
2022-11-19T13:52:19.261Z,1751
2022-11-19T13:53:35.490Z,1733
2022-11-19T13:54:51.708Z,1710
2022-11-19T13:56:07.966Z,1689
2022-11-19T13:57:24.209Z,1668
2022-11-19T13:58:40.458Z,1642
2022-11-19T13:59:55.718Z,1601
2022-11-19T14:01:11.948Z,1559
2022-11-19T14:02:28.166Z,1517
2022-11-19T14:03:44.423Z,1473
2022-11-19T14:05:00.683Z,1436
2022-11-19T14:06:16.893Z,1403
2022-11-19T14:07:33.160Z,1375
2022-11-19T14:08:49.397Z,1351
2022-11-19T14:10:05.630Z,1328
2022-11-19T14:11:21.887Z,1303
2022-11-19T14:12:38.099Z,1276
2022-11-19T14:13:54.363Z,1255
2022-11-19T14:15:10.575Z,1231
2022-11-19T14:16:26.838Z,1210
2022-11-19T14:17:43.078Z,1191
2022-11-19T14:18:59.328Z,1172
2022-11-19T14:20:15.544Z,1155
2022-11-19T14:21:30.821Z,1137
2022-11-19T14:22:47.043Z,1117
2022-11-19T14:24:03.277Z,1094
2022-11-19T14:25:18.575Z,1076
2022-11-19T14:26:34.786Z,1055
2022-11-19T14:27:51.040Z,1036
2022-11-19T14:29:07.278Z,1016
2022-11-19T14:30:23.527Z,996
2022-11-19T14:31:39.746Z,976
2022-11-19T14:32:56.008Z,957
2022-11-19T14:34:12.255Z,935
2022-11-19T14:35:28.495Z,915
2022-11-19T14:36:44.704Z,895
2022-11-19T14:38:00.982Z,872
2022-11-19T14:39:17.221Z,851
2022-11-19T14:40:33.450Z,827
2022-11-19T14:41:48.702Z,804
2022-11-19T14:43:04.949Z,780
2022-11-19T14:44:21.200Z,756
2022-11-19T14:45:37.427Z,730
2022-11-19T14:46:53.675Z,706
2022-11-19T14:48:09.910Z,682
2022-11-19T14:49:26.129Z,659
2022-11-19T14:50:42.391Z,635
2022-11-19T14:51:58.613Z,610
2022-11-19T14:53:14.882Z,580
2022-11-19T14:54:31.097Z,560
2022-11-19T14:55:47.363Z,531
2022-11-19T14:57:03.596Z,502
2022-11-19T14:58:18.856Z,470
2022-11-19T14:59:35.072Z,445
2022-11-19T15:00:51.336Z,419
2022-11-19T15:02:07.565Z,395
2022-11-19T15:03:23.817Z,371
2022-11-19T15:04:40.053Z,349
2022-11-19T15:05:56.296Z,328
2022-11-19T15:07:12.538Z,308
2022-11-19T15:08:28.777Z,286
2022-11-19T15:09:45.023Z,262
2022-11-19T15:11:01.277Z,240
2022-11-19T15:12:17.513Z,223
2022-11-19T15:13:33.000Z,203
2022-11-19T15:14:49.000Z,182
2022-11-19T15:16:05.241Z,166
2022-11-19T15:17:21.481Z,154
2022-11-19T15:18:37.729Z,138
2022-11-19T15:19:53.948Z,122
2022-11-19T15:21:10.201Z,105
2022-11-19T15:22:26.447Z,97
2022-11-19T15:23:42.701Z,84
2022-11-19T15:24:58.932Z,75
2022-11-19T15:26:15.169Z,66
2022-11-19T15:27:31.400Z,62
2022-11-19T15:28:47.631Z,53
2022-11-19T15:30:03.890Z,43
2022-11-19T15:31:19.125Z,36
2022-11-19T15:32:35.368Z,31
2022-11-19T15:33:51.636Z,29
2022-11-19T15:35:07.885Z,21
2022-11-19T15:36:24.108Z,16
2022-11-19T15:37:40.362Z,15
2022-11-19T15:38:56.592Z,12
2022-11-19T15:40:12.829Z,7
2022-11-19T15:41:29.081Z,6
2022-11-19T15:42:45.306Z,8
2022-11-19T15:44:01.549Z,9
2022-11-19T15:45:17.794Z,3
2022-11-19T15:46:34.043Z,2
2022-11-19T15:47:49.273Z,3
2022-11-19T15:49:05.534Z,1
2022-11-19T15:50:21.830Z,0
2022-11-19T15:51:38.135Z,0
2022-11-19T15:52:54.369Z,1
2022-11-19T15:54:10.614Z,1
2022-11-19T15:55:26.854Z,1
2022-11-19T15:56:43.146Z,0
2022-11-19T15:57:59.447Z,0
2022-11-19T15:59:15.735Z,0
2022-11-19T16:00:32.028Z,0
2022-11-19T16:01:48.331Z,0
2022-11-19T16:03:04.621Z,0
2022-11-19T16:04:19.932Z,0
2022-11-19T16:05:36.235Z,0
2022-11-19T16:06:52.524Z,0
2022-11-19T16:08:08.818Z,0
2022-11-19T16:09:25.107Z,0
2022-11-19T16:10:41.406Z,0
2022-11-19T16:11:57.703Z,0
2022-11-19T16:13:13.996Z,0
2022-11-19T16:14:30.290Z,0
2022-11-19T16:15:46.593Z,0
2022-11-19T16:17:02.879Z,0
2022-11-19T16:18:19.172Z,0
2022-11-19T16:19:35.466Z,0
2022-11-19T16:20:50.785Z,0
2022-11-19T16:22:07.078Z,0
2022-11-19T16:23:23.374Z,0
2022-11-19T16:24:39.663Z,0
2022-11-19T16:25:55.965Z,0
2022-11-19T16:27:12.271Z,0
2022-11-19T16:28:28.556Z,0
2022-11-19T16:29:44.841Z,0
2022-11-19T16:31:01.151Z,0
2022-11-19T16:32:17.437Z,0
2022-11-19T16:33:33.728Z,0
2022-11-19T16:34:50.026Z,0
2022-11-19T16:36:06.327Z,0
2022-11-19T16:37:21.631Z,0
2022-11-19T16:38:37.934Z,0
2022-11-19T16:39:54.228Z,0
2022-11-19T16:41:10.522Z,0
2022-11-19T16:42:26.816Z,0
2022-11-19T16:43:43.114Z,0
2022-11-19T16:44:59.400Z,0
2022-11-19T16:46:15.700Z,0
2022-11-19T16:47:32.001Z,0
2022-11-19T16:48:48.288Z,0
2022-11-19T16:50:04.594Z,0
2022-11-19T16:51:20.878Z,0
2022-11-19T16:52:37.185Z,0
2022-11-19T16:53:52.477Z,0
2022-11-19T16:55:08.792Z,0
2022-11-19T16:56:25.074Z,0
2022-11-19T16:57:41.370Z,0
2022-11-19T16:58:57.675Z,0
2022-11-19T17:00:13.962Z,0
2022-11-19T17:01:30.264Z,0
2022-11-19T17:02:46.547Z,0
2022-11-19T17:04:02.847Z,0
2022-11-19T17:05:19.143Z,0
2022-11-19T17:06:35.445Z,0
2022-11-19T17:07:51.729Z,0
2022-11-19T17:09:08.020Z,0
2022-11-19T17:10:23.343Z,0
2022-11-19T17:11:39.629Z,0
2022-11-19T17:12:55.922Z,0
2022-11-19T17:14:12.228Z,0
2022-11-19T17:15:28.512Z,0
2022-11-19T17:16:44.804Z,0
2022-11-19T17:18:01.107Z,0
2022-11-19T17:19:17.391Z,0
2022-11-19T17:20:33.691Z,0
2022-11-19T17:21:49.984Z,0
2022-11-19T17:23:06.279Z,0
2022-11-19T17:24:22.580Z,0
2022-11-19T17:25:38.868Z,0
2022-11-19T17:26:54.181Z,0
2022-11-19T17:28:10.475Z,0
2022-11-19T17:29:26.780Z,0
2022-11-19T17:30:43.077Z,0
2022-11-19T17:31:59.373Z,0
2022-11-19T17:33:15.659Z,0
2022-11-19T17:34:31.947Z,0
2022-11-19T17:35:48.244Z,0
2022-11-19T17:37:04.556Z,0
2022-11-19T17:38:20.851Z,0
2022-11-19T17:39:37.134Z,0
2022-11-19T17:40:53.435Z,0
2022-11-19T17:42:09.727Z,0
2022-11-19T17:43:25.029Z,0
2022-11-19T17:44:41.324Z,0
2022-11-19T17:45:57.630Z,0